Time;durP1;ratioP1;P1;durP2;ratioP2;P2;SDS_P1;SDS_P2;PMS_P1;PMS_P2;Temp;Humidity;BMP_temperature;BMP_pressure;BME280_temperature;BME280_humidity;BME280_pressure;Samples;Min_cycle;Max_cycle;Signal;HPM_P1;HPM_P2
2021/06/27 00:01:25;;;;;;;7.20;6.27;;;17.10;91.70;;;;;;5132911;28;20472;-67
2021/06/27 00:03:53;;;;;;;7.57;6.80;;;17.10;91.90;;;;;;5123387;28;20445;-67
2021/06/27 00:06:21;;;;;;;9.70;5.70;;;17.00;92.30;;;;;;5132132;28;20528;-67
2021/06/27 00:08:50;;;;;;;6.83;4.97;;;17.00;92.20;;;;;;5124441;28;20434;-67
2021/06/27 00:11:18;;;;;;;6.37;5.57;;;17.00;92.30;;;;;;5112264;28;20900;-66
2021/06/27 00:13:48;;;;;;;6.80;6.10;;;16.90;92.30;;;;;;5129509;28;20468;-68
2021/06/27 00:16:17;;;;;;;7.40;5.57;;;16.90;92.20;;;;;;5112838;28;20434;-67
2021/06/27 00:18:46;;;;;;;5.27;4.43;;;16.90;92.00;;;;;;5132736;27;20489;-67
2021/06/27 00:21:14;;;;;;;6.00;5.10;;;16.90;92.50;;;;;;5136429;27;20488;-67
2021/06/27 00:23:51;;;;;;;7.17;5.50;;;16.90;92.40;;;;;;5120372;27;20438;-67
2021/06/27 00:26:25;;;;;;;9.80;5.83;;;16.70;92.40;;;;;;5135147;27;20437;-67
2021/06/27 00:28:54;;;;;;;6.57;4.60;;;16.70;92.70;;;;;;5119541;27;20446;-67
2021/06/27 00:31:23;;;;;;;5.50;4.70;;;16.60;93.10;;;;;;5116023;28;20434;-67
2021/06/27 00:33:50;;;;;;;6.30;3.90;;;16.60;93.10;;;;;;5132022;27;20846;-69
2021/06/27 00:36:17;;;;;;;4.27;3.83;;;16.60;93.40;;;;;;5117167;27;20916;-67
2021/06/27 00:38:44;;;;;;;4.40;3.70;;;16.60;93.20;;;;;;5115791;28;20446;-67
2021/06/27 00:41:16;;;;;;;5.70;4.17;;;16.60;93.10;;;;;;5131741;27;20477;-67
2021/06/27 00:43:43;;;;;;;9.07;4.90;;;16.60;92.90;;;;;;5136134;27;20437;-67
2021/06/27 00:46:10;;;;;;;8.90;4.50;;;16.60;93.00;;;;;;5118587;27;20449;-67
2021/06/27 00:48:39;;;;;;;5.30;4.47;;;16.60;93.10;;;;;;5115619;28;20480;-68
2021/06/27 00:51:06;;;;;;;4.30;3.90;;;16.60;93.00;;;;;;5131405;27;20437;-67
2021/06/27 00:53:35;;;;;;;5.43;4.40;;;16.60;92.90;;;;;;5124139;27;20427;-67
2021/06/27 00:56:02;;;;;;;8.03;5.03;;;16.60;93.20;;;;;;5130618;27;20440;-67
2021/06/27 00:58:32;;;;;;;8.93;5.37;;;16.60;93.20;;;;;;5125225;27;20446;-68
2021/06/27 01:01:13;;;;;;;6.30;5.27;;;16.60;93.30;;;;;;5115303;28;20474;-67
2021/06/27 01:03:54;;;;;;;6.57;4.60;;;16.60;93.30;;;;;;5125938;27;20528;-67
2021/06/27 01:06:25;;;;;;;6.03;4.30;;;16.60;92.80;;;;;;5117078;27;20475;-68
2021/06/27 01:08:53;;;;;;;5.23;3.53;;;16.50;92.80;;;;;;5125989;27;20556;-68
2021/06/27 01:11:20;;;;;;;7.07;3.73;;;16.50;92.60;;;;;;5133813;27;20977;-69
2021/06/27 01:13:53;;;;;;;5.47;3.90;;;16.40;92.70;;;;;;5123980;27;20466;-68
2021/06/27 01:16:27;;;;;;;6.60;4.67;;;16.40;93.00;;;;;;5118585;27;20496;-68
2021/06/27 01:18:55;;;;;;;7.60;4.20;;;16.30;93.10;;;;;;5117160;27;20437;-68
2021/06/27 01:21:24;;;;;;;5.13;4.10;;;16.30;93.20;;;;;;5135206;27;20517;-68
2021/06/27 01:23:51;;;;;;;4.40;3.80;;;16.30;93.40;;;;;;5123912;27;20483;-68
2021/06/27 01:26:22;;;;;;;5.20;4.23;;;16.30;93.70;;;;;;5131579;27;20959;-68
2021/06/27 01:28:53;;;;;;;6.53;3.93;;;16.40;93.60;;;;;;5124810;27;20499;-67
2021/06/27 01:31:20;;;;;;;5.23;4.17;;;16.40;93.30;;;;;;5114777;28;20442;-68
2021/06/27 01:33:50;;;;;;;5.30;4.00;;;16.30;93.20;;;;;;5123251;27;20437;-67
2021/06/27 01:36:17;;;;;;;5.87;4.67;;;16.20;93.20;;;;;;5118107;27;20773;-67
2021/06/27 01:38:45;;;;;;;5.57;4.50;;;16.20;93.20;;;;;;5126344;27;20438;-67
2021/06/27 01:41:13;;;;;;;8.07;4.90;;;16.20;93.20;;;;;;5134955;27;20472;-68
2021/06/27 01:43:45;;;;;;;6.80;5.20;;;16.20;93.10;;;;;;5123518;27;20946;-68
2021/06/27 01:46:20;;;;;;;5.20;3.80;;;16.10;93.20;;;;;;5129676;27;20501;-68
2021/06/27 01:48:52;;;;;;;5.23;4.63;;;16.10;93.50;;;;;;5093992;28;20462;-67
2021/06/27 01:51:19;;;;;;;4.80;4.03;;;16.00;93.90;;;;;;5093744;28;20478;-67
2021/06/27 01:54:00;;;;;;;4.27;3.23;;;16.00;93.90;;;;;;5133548;27;20494;-68
2021/06/27 01:56:27;;;;;;;4.43;4.03;;;16.10;93.90;;;;;;5116746;27;20462;-67
2021/06/27 01:58:57;;;;;;;4.97;3.33;;;16.00;94.00;;;;;;5125646;27;20520;-67
2021/06/27 02:01:27;;;;;;;4.80;3.70;;;15.90;94.00;;;;;;5134873;27;20518;-68
2021/06/27 02:04:00;;;;;;;4.40;3.37;;;15.90;94.30;;;;;;5122839;27;20928;-68
2021/06/27 02:06:29;;;;;;;5.00;4.00;;;15.80;94.50;;;;;;5130999;27;20845;-67
2021/06/27 02:08:58;;;;;;;5.57;4.33;;;15.90;94.60;;;;;;5123252;27;20484;-67
2021/06/27 02:11:29;;;;;;;4.70;4.23;;;15.90;94.60;;;;;;5113888;28;20434;-67
2021/06/27 02:13:58;;;;;;;5.60;4.30;;;15.90;94.50;;;;;;5123231;27;20472;-68
2021/06/27 02:16:30;;;;;;;4.10;3.70;;;15.90;94.20;;;;;;5115590;27;20457;-67
2021/06/27 02:18:57;;;;;;;7.10;4.60;;;15.90;94.20;;;;;;5123449;27;20820;-68
2021/06/27 02:21:32;;;;;;;7.90;5.23;;;15.80;93.60;;;;;;5134200;27;20544;-67
2021/06/27 02:23:59;;;;;;;7.17;4.20;;;15.80;93.60;;;;;;5124034;27;20441;-67
2021/06/27 02:26:35;;;;;;;5.93;4.30;;;15.70;93.40;;;;;;5130331;27;20441;-67
2021/06/27 02:29:05;;;;;;;5.70;4.97;;;15.70;93.60;;;;;;5124219;27;20441;-67
2021/06/27 02:31:35;;;;;;;4.80;4.03;;;15.70;93.60;;;;;;5113513;28;20434;-67
2021/06/27 02:34:05;;;;;;;4.77;4.33;;;15.60;93.80;;;;;;5122145;27;20433;-67
2021/06/27 02:36:34;;;;;;;3.90;3.50;;;15.60;94.00;;;;;;5116323;27;20499;-67
2021/06/27 02:39:02;;;;;;;5.83;4.43;;;15.70;94.30;;;;;;5121190;27;20927;-67
2021/06/27 02:41:36;;;;;;;10.53;5.10;;;15.70;94.50;;;;;;5133605;27;20899;-67
2021/06/27 02:44:06;;;;;;;5.03;4.07;;;15.60;94.40;;;;;;5125227;27;20469;-67
2021/06/27 02:46:42;;;;;;;3.97;3.40;;;15.60;93.90;;;;;;5130202;27;20441;-66
2021/06/27 02:49:09;;;;;;;4.00;3.60;;;15.60;93.50;;;;;;5125086;27;20834;-68
2021/06/27 02:51:38;;;;;;;6.57;4.80;;;15.50;93.10;;;;;;5113529;28;20491;-68
2021/06/27 02:54:06;;;;;;;6.07;3.70;;;15.40;92.90;;;;;;5133864;27;20520;-67
2021/06/27 02:56:33;;;;;;;6.67;3.30;;;15.40;92.70;;;;;;5116141;27;20435;-67
2021/06/27 02:59:01;;;;;;;3.97;2.77;;;15.30;92.70;;;;;;5113072;28;20434;-67
2021/06/27 03:01:32;;;;;;;3.20;2.67;;;15.30;92.70;;;;;;5128153;27;20457;-68
2021/06/27 03:04:02;;;;;;;2.73;2.43;;;15.30;92.60;;;;;;5133365;27;20482;-67
2021/06/27 03:06:29;;;;;;;3.80;2.77;;;15.30;92.70;;;;;;5117405;27;20435;-67
2021/06/27 03:08:56;;;;;;;4.10;2.50;;;15.30;92.80;;;;;;5120939;27;20437;-67
2021/06/27 03:11:25;;;;;;;3.67;3.30;;;15.20;93.00;;;;;;5133434;27;20447;-67
2021/06/27 03:13:53;;;;;;;7.63;3.20;;;15.20;93.30;;;;;;5125513;27;20462;-67
2021/06/27 03:16:21;;;;;;;6.33;2.60;;;15.20;94.00;;;;;;5126980;27;20490;-67
2021/06/27 03:18:48;;;;;;;4.87;3.10;;;15.20;93.80;;;;;;5126943;27;20977;-67
2021/06/27 03:21:15;;;;;;;3.37;2.60;;;15.20;93.80;;;;;;5112964;28;20450;-67
2021/06/27 03:23:42;;;;;;;3.33;3.03;;;15.10;93.00;;;;;;5117188;28;20469;-67
2021/06/27 03:26:09;;;;;;;4.70;4.13;;;14.90;93.30;;;;;;5120147;28;21283;-68
2021/06/27 03:28:38;;;;;;;8.23;5.00;;;14.90;94.00;;;;;;5119930;28;20445;-69
2021/06/27 03:31:10;;;;;;;6.40;3.83;;;14.90;94.20;;;;;;5133446;28;20429;-67
2021/06/27 03:33:42;;;;;;;6.93;3.77;;;15.00;94.40;;;;;;5125651;28;20804;-68
2021/06/27 03:36:09;;;;;;;4.43;2.90;;;14.90;94.30;;;;;;5124654;28;20441;-67
2021/06/27 03:38:44;;;;;;;3.87;3.00;;;14.90;94.50;;;;;;5131387;28;20433;-67
2021/06/27 03:41:12;;;;;;;4.00;2.90;;;14.90;94.50;;;;;;5133022;28;20477;-68
2021/06/27 03:43:44;;;;;;;6.20;3.47;;;14.90;94.70;;;;;;5124872;28;20484;-67
2021/06/27 03:46:15;;;;;;;4.60;2.70;;;15.00;94.90;;;;;;5124324;28;20784;-67
2021/06/27 03:48:44;;;;;;;4.60;3.43;;;15.10;94.90;;;;;;5124911;28;20430;-67
2021/06/27 03:51:12;;;;;;;4.07;3.30;;;15.10;94.80;;;;;;5129449;27;20433;-68
2021/06/27 03:53:43;;;;;;;9.37;5.97;;;15.20;94.90;;;;;;5096312;28;20469;-67
2021/06/27 03:56:10;;;;;;;8.20;5.30;;;15.30;94.80;;;;;;5118791;27;20433;-69
2021/06/27 03:58:37;;;;;;;7.70;5.40;;;15.30;94.80;;;;;;5137359;27;20441;-69
2021/06/27 04:01:05;;;;;;;5.17;4.30;;;15.30;94.90;;;;;;5126519;27;20498;-68
2021/06/27 04:03:32;;;;;;;3.90;2.90;;;15.30;94.60;;;;;;5116390;28;20489;-69
2021/06/27 04:06:00;;;;;;;6.30;3.43;;;15.40;94.60;;;;;;5125812;27;20429;-69
2021/06/27 04:08:32;;;;;;;5.90;2.90;;;15.40;94.60;;;;;;5137239;27;20469;-69
2021/06/27 04:11:04;;;;;;;4.60;3.57;;;15.40;94.50;;;;;;5127373;27;20495;-70
2021/06/27 04:13:34;;;;;;;7.90;3.40;;;15.40;94.40;;;;;;5115922;28;20523;-70
2021/06/27 04:16:06;;;;;;;3.90;3.27;;;15.50;94.40;;;;;;5125877;27;20991;-69
2021/06/27 04:18:37;;;;;;;3.20;2.60;;;15.50;94.30;;;;;;5137277;27;20429;-69
2021/06/27 04:21:09;;;;;;;4.50;3.87;;;15.60;94.30;;;;;;5126964;27;20434;-68
2021/06/27 04:23:40;;;;;;;4.60;3.00;;;15.70;94.10;;;;;;5116240;28;20560;-69
2021/06/27 04:26:08;;;;;;;7.40;4.70;;;15.50;93.90;;;;;;5125976;27;20945;-72
2021/06/27 04:28:35;;;;;;;3.43;3.10;;;15.50;94.80;;;;;;5136959;27;20460;-68
2021/06/27 04:31:03;;;;;;;5.53;3.90;;;15.50;94.70;;;;;;5127373;27;20433;-68
2021/06/27 04:33:36;;;;;;;4.90;3.67;;;15.50;94.50;;;;;;5116136;27;20441;-68
2021/06/27 04:36:05;;;;;;;3.50;2.70;;;15.50;94.60;;;;;;5124630;27;20445;-68
2021/06/27 04:38:35;;;;;;;5.10;3.03;;;15.50;94.50;;;;;;5136668;27;20449;-68
2021/06/27 04:41:02;;;;;;;4.07;3.03;;;15.50;94.70;;;;;;5127488;27;20449;-68
2021/06/27 04:43:29;;;;;;;3.73;3.03;;;15.60;95.10;;;;;;5115699;28;20482;-68
2021/06/27 04:45:56;;;;;;;4.97;3.37;;;15.70;95.20;;;;;;5116255;27;20484;-68
2021/06/27 04:48:23;;;;;;;3.77;2.87;;;15.80;95.30;;;;;;5115781;28;20438;-69
2021/06/27 04:50:50;;;;;;;4.20;3.17;;;15.90;95.10;;;;;;5122069;27;20437;-68
2021/06/27 04:53:23;;;;;;;4.23;2.97;;;16.00;95.10;;;;;;5136341;27;20429;-69
2021/06/27 04:55:50;;;;;;;4.53;3.50;;;16.20;95.60;;;;;;5133970;27;20439;-69
2021/06/27 04:58:21;;;;;;;4.13;3.73;;;16.30;95.70;;;;;;5135992;27;20436;-68
2021/06/27 05:00:54;;;;;;;5.07;3.20;;;16.40;95.30;;;;;;5129824;27;20438;-68
2021/06/27 05:03:26;;;;;;;7.07;3.20;;;16.60;95.30;;;;;;5114820;28;20485;-68
2021/06/27 05:05:55;;;;;;;3.60;3.30;;;16.70;95.10;;;;;;5121750;27;20436;-68
2021/06/27 05:08:32;;;;;;;4.77;3.40;;;16.80;94.40;;;;;;5134307;27;20433;-68
2021/06/27 05:11:09;;;;;;;3.30;3.00;;;16.90;94.40;;;;;;5128142;27;20772;-68
2021/06/27 05:13:46;;;;;;;4.50;2.57;;;17.00;94.10;;;;;;5115286;28;20484;-68
2021/06/27 05:16:13;;;;;;;3.50;2.80;;;17.10;94.10;;;;;;5124118;27;20429;-68
2021/06/27 05:18:42;;;;;;;3.13;2.70;;;17.20;93.70;;;;;;5119878;27;20441;-68
2021/06/27 05:21:10;;;;;;;5.90;3.33;;;17.30;93.60;;;;;;5123010;27;20512;-69
2021/06/27 05:23:38;;;;;;;3.30;2.70;;;17.40;93.70;;;;;;5135876;27;20485;-68
2021/06/27 05:26:05;;;;;;;4.17;3.27;;;17.50;93.80;;;;;;5124003;27;20488;-68
2021/06/27 05:28:32;;;;;;;4.10;3.20;;;17.60;93.80;;;;;;5108101;28;20430;-69
2021/06/27 05:30:59;;;;;;;3.20;2.47;;;17.70;93.70;;;;;;5115645;27;20422;-68
2021/06/27 05:33:26;;;;;;;3.80;2.77;;;17.80;93.70;;;;;;5113203;28;20434;-68
2021/06/27 05:35:54;;;;;;;4.43;3.13;;;17.90;93.70;;;;;;5113164;27;20446;-69
2021/06/27 05:38:21;;;;;;;3.00;2.47;;;18.00;93.80;;;;;;5108815;28;20769;-68
2021/06/27 05:40:49;;;;;;;3.63;2.97;;;18.20;93.70;;;;;;5113187;27;20438;-69
2021/06/27 05:43:17;;;;;;;2.90;2.17;;;18.30;93.60;;;;;;5114890;27;20473;-68
2021/06/27 05:45:44;;;;;;;3.87;2.07;;;18.40;93.10;;;;;;5112995;28;20519;-68
2021/06/27 05:48:11;;;;;;;4.20;1.97;;;18.60;92.80;;;;;;5113377;28;20438;-69
2021/06/27 05:50:38;;;;;;;3.43;2.27;;;18.70;92.90;;;;;;5115077;27;20808;-69
2021/06/27 05:53:05;;;;;;;5.73;2.37;;;18.90;92.60;;;;;;5113242;28;20449;-68
2021/06/27 05:55:33;;;;;;;3.87;2.70;;;19.00;92.40;;;;;;5112853;27;20430;-68
2021/06/27 05:58:01;;;;;;;6.37;2.50;;;19.10;91.90;;;;;;5112596;28;20434;-70
2021/06/27 06:00:28;;;;;;;3.20;2.43;;;19.20;91.90;;;;;;5116781;27;20434;-68
2021/06/27 06:02:55;;;;;;;4.00;2.50;;;19.30;92.00;;;;;;5112170;28;20489;-69
2021/06/27 06:05:22;;;;;;;3.43;2.70;;;19.30;90.80;;;;;;5112661;28;20430;-68
2021/06/27 06:07:51;;;;;;;5.30;2.53;;;19.30;90.50;;;;;;5112800;28;20470;-68
2021/06/27 06:10:18;;;;;;;5.10;2.40;;;19.40;89.90;;;;;;5114264;27;20430;-68
2021/06/27 06:12:45;;;;;;;7.77;6.67;;;19.40;89.50;;;;;;5112243;28;20839;-69
2021/06/27 06:15:15;;;;;;;3.23;1.80;;;19.60;89.70;;;;;;5111308;27;20461;-69
2021/06/27 06:17:42;;;;;;;3.97;2.13;;;19.70;89.50;;;;;;5112478;28;20449;-69
2021/06/27 06:20:11;;;;;;;3.20;2.10;;;19.80;90.10;;;;;;5114407;27;20434;-69
2021/06/27 06:22:38;;;;;;;3.53;2.20;;;19.90;88.80;;;;;;5111886;28;20527;-69
2021/06/27 06:25:06;;;;;;;2.57;2.00;;;20.00;89.40;;;;;;5113040;27;20541;-68
2021/06/27 06:27:33;;;;;;;3.47;2.13;;;20.20;89.30;;;;;;5112388;28;20492;-68
2021/06/27 06:30:01;;;;;;;3.13;2.37;;;20.20;87.50;;;;;;5112778;27;20429;-69
2021/06/27 06:32:32;;;;;;;5.27;2.00;;;20.30;86.40;;;;;;5114648;27;20461;-69
2021/06/27 06:34:59;;;;;;;4.10;2.70;;;20.40;87.50;;;;;;5112406;27;20438;-69
2021/06/27 06:37:26;;;;;;;4.37;2.70;;;20.50;88.00;;;;;;5111918;28;20937;-69
2021/06/27 06:39:53;;;;;;;3.33;2.30;;;20.60;87.70;;;;;;5112294;27;20469;-69
2021/06/27 06:42:20;;;;;;;5.10;2.67;;;20.70;87.00;;;;;;5114476;27;20434;-69
2021/06/27 06:44:47;;;;;;;3.13;2.50;;;20.80;86.20;;;;;;5112031;27;20474;-69
2021/06/27 06:47:14;;;;;;;4.93;2.20;;;21.00;86.00;;;;;;5110488;28;20433;-70
2021/06/27 06:49:43;;;;;;;4.67;2.30;;;21.10;85.60;;;;;;5108007;28;20438;-70
2021/06/27 06:52:10;;;;;;;2.80;2.00;;;21.20;84.90;;;;;;5112228;27;20441;-69
2021/06/27 06:54:37;;;;;;;3.40;2.30;;;21.20;83.60;;;;;;5109631;28;21108;-70
2021/06/27 06:57:05;;;;;;;3.13;2.10;;;21.20;83.60;;;;;;5110817;28;20473;-69
2021/06/27 06:59:32;;;;;;;3.30;2.83;;;21.20;82.70;;;;;;5109735;28;20450;-69
2021/06/27 07:01:59;;;;;;;3.00;1.80;;;21.20;83.00;;;;;;5110097;28;21337;-69
2021/06/27 07:04:26;;;;;;;3.80;2.30;;;21.20;83.30;;;;;;5110069;28;20517;-70
2021/06/27 07:06:54;;;;;;;2.83;1.70;;;21.30;83.70;;;;;;5113536;27;20434;-70
2021/06/27 07:09:21;;;;;;;3.07;1.70;;;21.40;83.40;;;;;;5109836;28;20470;-70
2021/06/27 07:11:48;;;;;;;3.40;2.40;;;21.50;82.30;;;;;;5110002;28;20519;-70
2021/06/27 07:14:15;;;;;;;3.07;2.27;;;21.60;81.00;;;;;;5110362;28;20466;-69
2021/06/27 07:16:42;;;;;;;2.53;1.67;;;21.80;82.30;;;;;;5111634;28;20499;-69
2021/06/27 07:19:09;;;;;;;4.23;2.57;;;21.90;81.80;;;;;;5110872;28;20619;-71
2021/06/27 07:21:37;;;;;;;3.30;2.50;;;22.00;80.30;;;;;;5110624;28;20447;-69
2021/06/27 07:24:06;;;;;;;3.30;2.43;;;22.10;79.40;;;;;;5111230;28;20522;-69
2021/06/27 07:26:33;;;;;;;4.47;2.30;;;22.20;80.00;;;;;;5109918;28;20434;-71
2021/06/27 07:29:05;;;;;;;2.60;1.90;;;22.30;79.90;;;;;;5109977;28;20426;-71
2021/06/27 07:31:32;;;;;;;5.50;1.80;;;22.50;80.10;;;;;;5108249;28;20441;-72
2021/06/27 07:34:00;;;;;;;2.73;2.03;;;22.70;80.00;;;;;;5110968;28;20779;-69
2021/06/27 07:36:27;;;;;;;3.67;2.00;;;22.90;79.80;;;;;;5109969;28;20434;-69
2021/06/27 07:38:54;;;;;;;5.27;1.93;;;23.00;78.40;;;;;;5109933;28;20446;-70
2021/06/27 07:41:22;;;;;;;4.10;2.00;;;23.00;78.00;;;;;;5110110;28;20443;-69
2021/06/27 07:43:50;;;;;;;4.20;2.10;;;23.10;79.10;;;;;;5109722;28;20474;-70
2021/06/27 07:46:17;;;;;;;2.43;1.93;;;23.20;79.70;;;;;;5109682;28;20483;-70
2021/06/27 07:48:45;;;;;;;3.50;1.70;;;23.30;77.70;;;;;;5110347;28;20426;-70
2021/06/27 07:51:12;;;;;;;2.50;1.33;;;23.40;77.10;;;;;;5110324;28;20434;-70
2021/06/27 07:53:39;;;;;;;3.90;2.00;;;23.50;77.50;;;;;;5111666;28;20847;-70
2021/06/27 07:56:06;;;;;;;2.23;1.67;;;23.60;78.00;;;;;;5113219;28;20438;-70
2021/06/27 07:58:34;;;;;;;3.10;1.73;;;23.70;76.60;;;;;;5109745;28;20465;-70
2021/06/27 08:01:01;;;;;;;3.70;2.47;;;23.70;76.30;;;;;;5110064;28;20434;-69
2021/06/27 08:03:28;;;;;;;3.00;1.67;;;23.70;72.10;;;;;;5110149;28;20978;-71
2021/06/27 08:05:55;;;;;;;2.20;1.23;;;23.70;74.00;;;;;;5110965;28;20423;-69
2021/06/27 08:08:22;;;;;;;2.27;1.53;;;23.70;73.60;;;;;;5109647;28;20478;-70
2021/06/27 08:10:49;;;;;;;2.30;1.47;;;23.80;74.20;;;;;;5111587;28;20476;-69
2021/06/27 08:13:16;;;;;;;2.63;1.63;;;23.90;73.70;;;;;;5110880;28;20466;-71
2021/06/27 08:15:45;;;;;;;2.27;1.50;;;24.00;73.60;;;;;;5112318;28;20487;-69
2021/06/27 08:18:12;;;;;;;2.20;1.40;;;24.10;72.00;;;;;;5110164;28;20484;-69
2021/06/27 08:20:39;;;;;;;2.40;1.53;;;24.20;71.10;;;;;;5117452;28;20478;-71
2021/06/27 08:23:06;;;;;;;2.23;1.13;;;24.20;67.80;;;;;;5109431;28;20437;-69
2021/06/27 08:25:33;;;;;;;2.30;1.20;;;24.20;65.70;;;;;;5109922;28;20445;-70
2021/06/27 08:28:01;;;;;;;1.67;0.80;;;24.20;63.80;;;;;;5109832;28;20908;-71
2021/06/27 08:30:28;;;;;;;2.47;1.30;;;24.20;63.20;;;;;;5112112;28;20478;-70
2021/06/27 08:32:57;;;;;;;1.93;1.27;;;24.30;64.00;;;;;;5109415;28;20445;-70
2021/06/27 08:35:24;;;;;;;2.10;1.10;;;24.40;63.50;;;;;;5113358;28;20941;-69
2021/06/27 08:37:53;;;;;;;4.40;1.30;;;24.50;65.50;;;;;;5110732;28;20442;-70
2021/06/27 08:40:21;;;;;;;1.83;1.00;;;24.70;63.40;;;;;;5112951;27;20431;-70
2021/06/27 08:42:48;;;;;;;1.90;1.10;;;24.70;62.40;;;;;;5114079;28;20434;-70
2021/06/27 08:45:17;;;;;;;2.10;1.10;;;24.80;64.50;;;;;;5114480;27;20845;-69
2021/06/27 08:47:46;;;;;;;1.93;1.00;;;24.90;64.30;;;;;;5113939;28;20542;-69
2021/06/27 08:50:16;;;;;;;2.23;1.00;;;25.00;63.00;;;;;;5111271;27;20426;-69
2021/06/27 08:52:45;;;;;;;2.00;1.10;;;25.10;62.60;;;;;;5114398;28;20884;-69
2021/06/27 08:55:14;;;;;;;2.60;1.20;;;25.10;63.20;;;;;;5117248;27;20474;-69
2021/06/27 08:57:42;;;;;;;2.47;1.40;;;25.20;64.10;;;;;;5113727;28;20434;-69
2021/06/27 09:00:10;;;;;;;1.90;1.00;;;25.30;64.60;;;;;;5113810;27;20458;-69
2021/06/27 09:02:40;;;;;;;2.00;1.20;;;25.30;64.50;;;;;;5114432;28;20473;-69
2021/06/27 09:05:09;;;;;;;2.20;1.40;;;25.30;65.20;;;;;;5113790;27;20577;-67
2021/06/27 09:07:39;;;;;;;1.90;1.20;;;25.40;64.60;;;;;;5114060;28;20454;-69
2021/06/27 09:10:09;;;;;;;2.20;1.47;;;25.40;63.80;;;;;;5115225;27;20469;-69
2021/06/27 09:12:46;;;;;;;2.10;1.10;;;25.40;60.30;;;;;;5113446;28;20535;-70
2021/06/27 09:15:14;;;;;;;1.90;1.00;;;25.50;60.30;;;;;;5130330;27;20466;-69
2021/06/27 09:17:43;;;;;;;2.27;1.10;;;25.60;57.70;;;;;;5135856;27;20454;-69
2021/06/27 09:20:11;;;;;;;1.80;1.03;;;25.60;58.60;;;;;;5125221;27;20443;-70
2021/06/27 09:22:41;;;;;;;2.10;1.10;;;25.70;58.30;;;;;;5117341;27;20434;-69
2021/06/27 09:25:18;;;;;;;2.10;1.20;;;25.70;57.70;;;;;;5135577;27;20517;-70
2021/06/27 09:27:47;;;;;;;1.67;0.93;;;25.70;59.60;;;;;;5129828;27;20445;-70
2021/06/27 09:30:16;;;;;;;2.20;1.40;;;25.80;58.90;;;;;;5114694;28;20915;-69
2021/06/27 09:32:55;;;;;;;2.20;1.30;;;25.90;59.00;;;;;;5119508;27;20486;-69
2021/06/27 09:35:51;;;;;;;1.63;1.00;;;26.00;59.90;;;;;;5135586;27;20436;-71
2021/06/27 09:38:25;;;;;;;2.00;1.03;;;26.10;56.80;;;;;;5069764;28;20453;-70
2021/06/27 09:40:54;;;;;;;4.43;1.20;;;26.20;58.20;;;;;;5105041;28;20441;-69
2021/06/27 09:43:21;;;;;;;1.87;1.10;;;26.20;55.90;;;;;;5115606;27;20478;-70
2021/06/27 09:45:52;;;;;;;1.90;0.83;;;26.20;54.20;;;;;;5111955;28;20520;-69
2021/06/27 09:48:22;;;;;;;2.67;1.00;;;26.30;54.60;;;;;;5112594;27;20480;-71
2021/06/27 09:50:49;;;;;;;2.63;0.90;;;26.40;53.40;;;;;;5113170;28;20438;-70
2021/06/27 09:53:38;;;;;;;1.90;0.90;;;26.40;54.80;;;;;;5115928;27;20835;-68
2021/06/27 09:56:10;;;;;;;1.80;0.90;;;26.40;54.80;;;;;;5112595;28;20969;-69
2021/06/27 09:58:55;;;;;;;1.70;0.90;;;26.50;55.30;;;;;;5115867;27;20426;-69
2021/06/27 10:01:25;;;;;;;2.00;0.93;;;26.70;55.40;;;;;;5111411;28;20483;-70
2021/06/27 10:03:56;;;;;;;2.20;1.00;;;26.80;53.30;;;;;;5112370;28;20544;-69
2021/06/27 10:06:27;;;;;;;2.00;1.10;;;26.80;49.00;;;;;;5112768;27;20438;-70
2021/06/27 10:09:10;;;;;;;2.13;1.03;;;26.90;52.80;;;;;;5112801;28;20526;-74
2021/06/27 10:11:38;;;;;;;1.67;0.77;;;27.10;53.30;;;;;;5112047;27;20515;-70
2021/06/27 10:14:11;;;;;;;1.90;0.97;;;27.20;53.10;;;;;;5112319;28;21156;-71
2021/06/27 10:16:39;;;;;;;1.77;0.70;;;27.30;51.20;;;;;;5109166;27;20462;-71
2021/06/27 10:19:07;;;;;;;1.80;0.93;;;27.40;49.90;;;;;;5106072;27;20438;-70
2021/06/27 10:21:41;;;;;;;1.70;0.87;;;27.40;47.90;;;;;;5122060;27;20437;-69
2021/06/27 10:24:10;;;;;;;2.53;0.87;;;27.50;48.70;;;;;;5111634;27;20638;-70
2021/06/27 10:26:41;;;;;;;4.27;1.40;;;27.60;46.60;;;;;;5117646;27;20932;-70
2021/06/27 10:29:11;;;;;;;2.90;0.80;;;27.60;49.20;;;;;;5115885;27;20481;-70
2021/06/27 10:31:46;;;;;;;1.70;0.80;;;27.70;48.00;;;;;;5111999;27;20453;-70
2021/06/27 10:34:13;;;;;;;1.70;0.73;;;27.80;47.60;;;;;;5116807;27;20449;-70
2021/06/27 10:36:43;;;;;;;1.63;0.77;;;27.90;48.10;;;;;;5117945;27;20541;-71
2021/06/27 10:39:15;;;;;;;1.57;0.83;;;27.90;45.90;;;;;;5120046;27;20450;-70
2021/06/27 10:42:01;;;;;;;2.67;1.20;;;28.00;47.20;;;;;;5115878;27;20435;-70
2021/06/27 10:44:29;;;;;;;1.60;0.70;;;28.10;45.80;;;;;;5112559;28;20564;-70
2021/06/27 10:46:58;;;;;;;1.63;0.70;;;28.10;45.70;;;;;;5112225;28;20521;-70
2021/06/27 10:49:53;;;;;;;1.67;0.80;;;28.10;42.90;;;;;;5112427;28;20434;-69
2021/06/27 10:52:21;;;;;;;1.70;0.90;;;28.10;46.80;;;;;;5112608;28;20458;-69
2021/06/27 10:55:24;;;;;;;1.80;0.80;;;28.10;50.20;;;;;;5112604;28;20460;-69
2021/06/27 10:57:59;;;;;;;2.00;0.80;;;28.20;47.20;;;;;;5114477;27;20426;-71
2021/06/27 11:00:41;;;;;;;2.27;0.80;;;28.30;46.20;;;;;;5108654;28;20516;-69
2021/06/27 11:03:29;;;;;;;2.20;1.30;;;28.30;46.90;;;;;;5096865;27;20473;-70
2021/06/27 11:05:58;;;;;;;2.33;0.90;;;28.30;45.10;;;;;;5110576;28;20489;-71
2021/06/27 11:08:40;;;;;;;1.70;0.80;;;28.30;45.80;;;;;;5108076;28;20426;-70
2021/06/27 11:11:12;;;;;;;2.67;1.10;;;28.30;46.70;;;;;;5112305;28;20444;-70
2021/06/27 11:13:39;;;;;;;1.60;0.80;;;28.30;49.50;;;;;;5108624;28;20528;-70
2021/06/27 11:16:24;;;;;;;2.30;1.00;;;28.40;50.00;;;;;;5113096;28;20442;-69
2021/06/27 11:18:52;;;;;;;2.10;1.20;;;28.50;47.80;;;;;;5112425;28;20449;-68
2021/06/27 11:21:25;;;;;;;1.73;0.87;;;28.50;48.80;;;;;;5112247;28;20928;-69
2021/06/27 11:24:03;;;;;;;2.77;1.00;;;28.60;46.20;;;;;;5115328;28;20462;-70
2021/06/27 11:27:02;;;;;;;1.57;0.80;;;28.60;46.90;;;;;;5112243;28;20429;-69
2021/06/27 11:29:49;;;;;;;1.60;0.80;;;28.70;47.70;;;;;;5111204;28;20474;-69
2021/06/27 11:32:43;;;;;;;2.37;0.87;;;28.80;47.50;;;;;;5112810;28;20512;-69
2021/06/27 11:35:11;;;;;;;1.83;0.90;;;28.90;47.30;;;;;;5110571;28;20429;-69
2021/06/27 11:37:43;;;;;;;1.80;1.00;;;28.90;44.60;;;;;;5111908;28;20528;-72
2021/06/27 11:40:11;;;;;;;1.67;0.90;;;28.90;45.90;;;;;;5108635;28;20462;-69
2021/06/27 11:42:55;;;;;;;1.80;0.93;;;28.90;46.00;;;;;;5111482;28;20847;-71
2021/06/27 11:45:47;;;;;;;1.97;0.90;;;28.90;45.10;;;;;;5111587;28;20558;-69
2021/06/27 11:48:14;;;;;;;2.43;1.00;;;29.00;42.80;;;;;;5107857;28;20988;-70
2021/06/27 11:50:47;;;;;;;2.73;1.00;;;28.90;42.50;;;;;;5111928;28;20524;-69
2021/06/27 11:53:14;;;;;;;3.00;1.10;;;29.00;45.20;;;;;;5112537;28;20521;-69
2021/06/27 11:55:43;;;;;;;1.90;0.97;;;29.00;42.50;;;;;;5111751;28;20526;-69
2021/06/27 11:58:19;;;;;;;1.70;0.90;;;29.00;44.80;;;;;;5114197;28;20526;-70
2021/06/27 12:00:49;;;;;;;1.80;1.13;;;29.10;41.30;;;;;;5111571;28;20837;-69
2021/06/27 12:03:18;;;;;;;1.60;0.90;;;29.10;42.20;;;;;;5111694;28;20528;-69
2021/06/27 12:05:52;;;;;;;2.40;0.90;;;29.10;42.00;;;;;;5111337;28;20575;-69
2021/06/27 12:08:21;;;;;;;2.10;1.20;;;29.20;43.70;;;;;;5107375;28;20448;-69
2021/06/27 12:10:55;;;;;;;1.80;1.00;;;29.20;41.00;;;;;;5109575;28;20447;-69
2021/06/27 12:13:26;;;;;;;1.73;0.90;;;29.30;42.70;;;;;;5113608;28;20457;-70
2021/06/27 12:15:54;;;;;;;2.30;1.00;;;29.30;43.40;;;;;;5113847;27;20433;-69
2021/06/27 12:18:23;;;;;;;2.07;1.10;;;29.50;42.50;;;;;;5115231;28;20846;-69
2021/06/27 12:20:51;;;;;;;2.10;1.10;;;29.60;41.90;;;;;;5115319;27;20437;-70
2021/06/27 12:23:21;;;;;;;1.70;0.90;;;29.60;41.30;;;;;;5114957;28;20539;-69
2021/06/27 12:25:50;;;;;;;2.40;1.30;;;29.70;41.50;;;;;;5114427;28;20492;-70
2021/06/27 12:28:22;;;;;;;1.80;0.90;;;29.70;41.30;;;;;;5114774;28;20429;-69
2021/06/27 12:30:53;;;;;;;1.80;1.00;;;29.80;39.80;;;;;;5112022;27;20433;-69
2021/06/27 12:33:22;;;;;;;1.87;1.10;;;29.90;40.40;;;;;;5115141;28;21130;-69
2021/06/27 12:35:59;;;;;;;1.90;0.90;;;30.00;41.10;;;;;;5115556;27;20573;-69
2021/06/27 12:38:26;;;;;;;2.63;0.93;;;30.10;40.60;;;;;;5125895;27;20495;-69
2021/06/27 12:40:55;;;;;;;2.13;1.10;;;30.30;40.30;;;;;;5117183;27;20473;-70
2021/06/27 12:43:29;;;;;;;3.30;1.30;;;30.40;37.20;;;;;;5116203;28;20845;-69
2021/06/27 12:46:23;;;;;;;3.50;1.00;;;30.50;38.90;;;;;;5124493;27;20480;-69
2021/06/27 12:48:52;;;;;;;1.80;1.00;;;30.60;37.70;;;;;;5136394;27;20436;-71
2021/06/27 12:51:25;;;;;;;1.73;1.10;;;30.70;37.30;;;;;;5125067;27;20459;-70
2021/06/27 12:54:00;;;;;;;2.80;1.37;;;30.70;37.20;;;;;;5119228;27;20433;-69
2021/06/27 12:56:53;;;;;;;1.97;1.10;;;30.70;38.00;;;;;;5136573;27;20468;-69
2021/06/27 12:59:22;;;;;;;2.83;1.30;;;30.60;38.50;;;;;;5126422;27;20530;-69
2021/06/27 13:02:08;;;;;;;2.50;1.07;;;30.60;37.90;;;;;;5130890;27;20490;-69
2021/06/27 13:04:39;;;;;;;2.10;1.17;;;30.50;37.00;;;;;;5127891;27;20438;-69